CheckWX is a tool to help pilots better visualize weather data.  It is not intended as a substitute for an official pre-flight weather briefing.

00:38:48 UTC

FMNA METAR
Arrachart Airport
Madagascar
Current

10 hours ago

FMNA 241500Z 28008KT 9999 FEW020CB 28/24 Q1004
Observed
Feb-24 @ 15:00 UTC
Wind
  • 280° at 8 KTS
Visibility
10,000+ meters
Flight Rules
VFR
Cloud Levels
  • Few at 2,000' AGL
Temperature
28°C / 82°F
Dewpoint
24°C / 75°F
Heat Index
32°C / 89°F
Humidity
79%
Altimeter
29.65" Hg
Pressure
1003.92 hPa
Previous

11 hours ago

FMNA 241400Z 28010KT 9999 FEW020CB 30/24 Q1007
Observed
Feb-24 @ 14:00 UTC
Wind
  • 280° at 10 KTS
Visibility
10,000+ meters
Flight Rules
VFR
Cloud Levels
  • Few at 2,000' AGL
Temperature
30°C / 86°F
Dewpoint
24°C / 75°F
Heat Index
35°C / 95°F
Humidity
70%
Altimeter
29.73" Hg
Pressure
1006.92 hPa
Previous

12 hours ago

FMNA 241300Z 28006KT 9999 SCT020CB 30/24 Q1006
Observed
Feb-24 @ 13:00 UTC
Wind
  • 280° at 6 KTS
Visibility
10,000+ meters
Flight Rules
VFR
Cloud Levels
  • Scattered at 2,000' AGL
Temperature
30°C / 86°F
Dewpoint
24°C / 75°F
Heat Index
35°C / 95°F
Humidity
70%
Altimeter
29.7" Hg
Pressure
1005.92 hPa